createdAt,value
2017-06-19T00:01:10.586Z,16.70
2017-06-19T00:03:41.858Z,16.61
2017-06-19T00:06:14.134Z,16.47
2017-06-19T00:08:50.769Z,16.20
2017-06-19T00:11:22.116Z,16.24
2017-06-19T00:13:51.338Z,16.49
2017-06-19T00:16:26.930Z,16.60
2017-06-19T00:18:54.624Z,16.57
2017-06-19T00:21:27.532Z,16.59
2017-06-19T00:24:00.660Z,16.59
2017-06-19T00:26:33.926Z,16.55
2017-06-19T00:29:06.588Z,16.44
2017-06-19T00:31:35.600Z,16.65
2017-06-19T00:34:15.714Z,16.79
2017-06-19T00:36:45.751Z,16.83
2017-06-19T00:39:17.769Z,16.90
2017-06-19T00:41:52.354Z,16.86
2017-06-19T00:44:19.892Z,16.96
2017-06-19T00:46:57.240Z,17.10
2017-06-19T00:49:37.182Z,17.08
2017-06-19T00:52:29.545Z,17.05
2017-06-19T00:55:02.085Z,16.92
2017-06-19T00:57:45.938Z,17.07
2017-06-19T01:03:14.235Z,16.92
2017-06-19T01:08:52.145Z,16.95
2017-06-19T01:14:01.005Z,16.98
2017-06-19T01:36:58.580Z,17.03
2017-06-19T01:39:33.293Z,17.25
2017-06-19T01:42:18.615Z,17.30
2017-06-19T01:44:59.117Z,17.13
2017-06-19T01:51:33.676Z,17.21
2017-06-19T01:54:16.283Z,17.25
2017-06-19T01:56:56.124Z,17.24
2017-06-19T01:59:32.250Z,17.22
2017-06-19T02:02:12.930Z,17.25
2017-06-19T02:04:46.708Z,17.31
2017-06-19T02:07:26.533Z,17.40
2017-06-19T02:10:09.003Z,17.33
2017-06-19T02:12:42.886Z,17.45
2017-06-19T02:15:17.860Z,17.36
2017-06-19T02:17:46.325Z,17.35
2017-06-19T02:23:44.461Z,17.28
2017-06-19T02:26:33.094Z,17.38
2017-06-19T02:32:16.917Z,17.42
2017-06-19T02:35:10.389Z,17.40
2017-06-19T02:37:44.174Z,17.32
2017-06-19T02:40:26.915Z,17.33
2017-06-19T02:43:07.701Z,17.45
2017-06-19T02:52:17.161Z,17.54
2017-06-19T02:54:52.178Z,17.49
2017-06-19T02:57:29.782Z,17.51
2017-06-19T03:00:01.328Z,17.51
2017-06-19T03:02:52.009Z,17.58
2017-06-19T03:05:27.652Z,17.53
2017-06-19T03:07:58.102Z,17.52
2017-06-19T03:10:36.468Z,17.57
2017-06-19T03:13:14.545Z,17.41
2017-06-19T03:16:07.274Z,17.49
2017-06-19T03:21:25.216Z,17.37
2017-06-19T03:42:49.768Z,17.74
2017-06-19T03:57:55.068Z,17.68
2017-06-19T04:00:23.359Z,17.40
2017-06-19T04:06:25.946Z,17.61
2017-06-19T04:16:11.869Z,18.25
2017-06-19T04:18:42.832Z,18.10
2017-06-19T04:21:11.892Z,18.11
2017-06-19T04:23:46.723Z,18.02
2017-06-19T04:26:14.367Z,18.07
2017-06-19T04:28:42.124Z,18.17
2017-06-19T04:31:09.664Z,18.20
2017-06-19T04:33:37.233Z,18.14
2017-06-19T04:36:04.752Z,18.23
2017-06-19T04:38:32.447Z,18.30
2017-06-19T04:41:00.068Z,18.36
2017-06-19T04:43:27.825Z,18.21
2017-06-19T04:45:55.899Z,18.25
2017-06-19T04:48:23.398Z,18.30
2017-06-19T04:50:50.896Z,18.30
2017-06-19T04:53:18.437Z,18.34
2017-06-19T04:55:45.945Z,18.35
2017-06-19T04:58:13.534Z,18.25
2017-06-19T05:00:42.061Z,18.54
2017-06-19T05:03:09.589Z,18.61
2017-06-19T05:05:37.116Z,18.69
2017-06-19T05:08:04.652Z,18.78
2017-06-19T05:10:32.157Z,18.85
2017-06-19T05:12:59.666Z,18.85
2017-06-19T05:15:27.219Z,18.97
2017-06-19T05:17:54.721Z,18.95
2017-06-19T05:20:22.292Z,19.02
2017-06-19T05:22:49.874Z,19.10
2017-06-19T05:25:17.609Z,19.07
2017-06-19T05:27:45.136Z,19.02
2017-06-19T05:30:12.789Z,18.96
2017-06-19T05:32:40.298Z,18.92
2017-06-19T05:35:08.029Z,18.97
2017-06-19T05:37:35.638Z,19.01
2017-06-19T05:40:03.154Z,19.14
2017-06-19T05:42:30.907Z,18.79
2017-06-19T05:44:58.479Z,19.13
2017-06-19T05:47:26.013Z,19.32
2017-06-19T05:49:53.544Z,19.50
2017-06-19T05:52:21.142Z,19.57
2017-06-19T05:54:48.650Z,19.55
2017-06-19T05:57:16.140Z,19.39
2017-06-19T05:59:43.686Z,19.33
2017-06-19T06:02:11.238Z,18.96
2017-06-19T06:04:38.742Z,18.51
2017-06-19T06:07:06.248Z,18.65
2017-06-19T06:09:33.838Z,18.94
2017-06-19T06:12:02.406Z,18.73
2017-06-19T06:14:29.921Z,18.97
2017-06-19T06:16:57.594Z,19.00
2017-06-19T06:19:25.154Z,18.92
2017-06-19T06:21:52.892Z,19.20
2017-06-19T06:24:20.438Z,19.31
2017-06-19T06:26:47.957Z,19.46
2017-06-19T06:29:15.758Z,19.53
2017-06-19T06:31:43.837Z,19.49
2017-06-19T06:34:11.355Z,19.50
2017-06-19T06:36:38.858Z,19.39
2017-06-19T06:39:06.476Z,19.41
2017-06-19T06:41:33.993Z,19.40
2017-06-19T06:44:01.807Z,19.29
2017-06-19T06:46:29.350Z,19.44
2017-06-19T06:48:56.844Z,19.70
2017-06-19T06:51:24.414Z,19.63
2017-06-19T06:53:51.985Z,19.62
2017-06-19T06:56:19.541Z,19.45
2017-06-19T06:58:47.107Z,19.72
2017-06-19T07:01:14.662Z,19.82
2017-06-19T07:03:42.184Z,19.63
2017-06-19T07:06:09.690Z,19.46
2017-06-19T07:08:37.315Z,19.86
2017-06-19T07:11:04.853Z,19.78
2017-06-19T07:13:32.363Z,19.59
2017-06-19T07:15:59.912Z,19.84
2017-06-19T07:18:27.420Z,19.67
2017-06-19T07:20:54.922Z,19.33
2017-06-19T07:23:22.458Z,19.90
2017-06-19T07:25:49.974Z,20.15
2017-06-19T07:28:17.522Z,19.76
2017-06-19T07:30:45.207Z,19.71
2017-06-19T07:33:12.752Z,19.70
2017-06-19T07:35:40.845Z,19.26
2017-06-19T07:38:08.411Z,19.32
2017-06-19T07:40:35.911Z,19.16
2017-06-19T07:43:03.404Z,19.43
2017-06-19T07:45:30.951Z,19.76
2017-06-19T07:47:59.481Z,19.76
2017-06-19T07:50:30.761Z,19.90
2017-06-19T07:52:58.699Z,19.69
2017-06-19T07:55:26.250Z,20.01
2017-06-19T07:57:53.862Z,20.14
2017-06-19T08:00:21.551Z,20.19
2017-06-19T08:02:49.058Z,20.14
2017-06-19T08:05:16.658Z,20.18
2017-06-19T08:07:44.229Z,20.02
2017-06-19T08:10:11.750Z,19.90
2017-06-19T08:12:39.253Z,19.33
2017-06-19T08:15:06.866Z,19.58
2017-06-19T08:17:34.402Z,19.78
2017-06-19T08:20:01.914Z,19.80
2017-06-19T08:22:29.487Z,19.80
2017-06-19T08:24:56.998Z,19.56
2017-06-19T08:27:24.533Z,19.99
2017-06-19T08:29:52.079Z,20.27
2017-06-19T08:32:19.707Z,20.70
2017-06-19T08:34:47.225Z,21.11
2017-06-19T08:37:14.740Z,21.28
2017-06-19T08:39:42.301Z,21.54
2017-06-19T08:42:09.809Z,21.01
2017-06-19T08:44:37.313Z,20.74
2017-06-19T08:47:04.907Z,21.04
2017-06-19T08:49:32.470Z,21.62
2017-06-19T08:51:59.981Z,22.08
2017-06-19T08:54:27.516Z,22.54
2017-06-19T08:56:55.024Z,22.54
2017-06-19T08:59:22.529Z,22.17
2017-06-19T09:01:50.078Z,21.95
2017-06-19T09:04:17.576Z,22.17
2017-06-19T09:06:45.078Z,22.04
2017-06-19T09:09:12.630Z,22.04
2017-06-19T09:11:40.144Z,21.52
2017-06-19T09:14:07.714Z,21.63
2017-06-19T09:16:35.278Z,22.08
2017-06-19T09:19:02.788Z,22.24
2017-06-19T09:21:30.304Z,22.61
2017-06-19T09:23:57.885Z,21.69
2017-06-19T09:26:25.424Z,22.15
2017-06-19T09:28:52.929Z,22.63
2017-06-19T09:31:20.522Z,22.81
2017-06-19T09:33:48.054Z,23.35
2017-06-19T09:36:15.562Z,23.11
2017-06-19T09:38:43.095Z,23.24
2017-06-19T09:41:10.620Z,23.15
2017-06-19T09:43:38.124Z,23.03
2017-06-19T09:46:05.715Z,23.35
2017-06-19T09:48:33.253Z,23.90
2017-06-19T09:51:00.756Z,23.40
2017-06-19T09:53:28.321Z,22.94
2017-06-19T09:55:55.835Z,23.36
2017-06-19T09:58:23.346Z,23.44
2017-06-19T10:00:50.922Z,23.08
2017-06-19T10:03:18.433Z,22.86
2017-06-19T10:05:45.974Z,23.35
2017-06-19T10:08:13.503Z,24.30
2017-06-19T10:10:41.080Z,24.72
2017-06-19T10:13:08.601Z,24.78
2017-06-19T10:15:36.152Z,24.57
2017-06-19T10:18:03.652Z,24.64
2017-06-19T10:20:31.172Z,25.07
2017-06-19T10:22:58.716Z,24.17
2017-06-19T10:25:26.214Z,24.69
2017-06-19T10:27:53.737Z,24.62
2017-06-19T10:30:21.495Z,24.86
2017-06-19T10:32:49.018Z,24.76
2017-06-19T10:35:16.529Z,24.90
2017-06-19T10:37:44.133Z,24.95
2017-06-19T10:40:11.696Z,24.11
2017-06-19T10:42:39.222Z,23.05
2017-06-19T10:45:06.763Z,23.23
2017-06-19T10:47:34.357Z,23.38
2017-06-19T10:50:01.916Z,23.51
2017-06-19T10:52:29.447Z,23.14
2017-06-19T10:54:57.017Z,23.11
2017-06-19T10:57:24.543Z,23.13
2017-06-19T10:59:52.094Z,22.89
2017-06-19T11:02:19.668Z,22.43
2017-06-19T11:04:47.234Z,22.46
2017-06-19T11:07:14.745Z,22.22
2017-06-19T11:09:42.330Z,21.93
2017-06-19T11:12:09.830Z,22.46
2017-06-19T11:14:37.328Z,22.43
2017-06-19T11:17:04.908Z,22.02
2017-06-19T11:19:32.414Z,21.85
2017-06-19T11:21:59.922Z,21.99
2017-06-19T11:24:27.513Z,21.93
2017-06-19T11:26:55.027Z,21.86
2017-06-19T11:29:22.554Z,22.13
2017-06-19T11:31:50.093Z,22.82
2017-06-19T11:34:17.589Z,23.26
2017-06-19T11:36:45.173Z,23.69
2017-06-19T11:39:13.525Z,23.56
2017-06-19T11:41:49.212Z,22.06
2017-06-19T11:44:16.816Z,22.01
2017-06-19T11:46:44.818Z,22.03
2017-06-19T11:49:12.337Z,22.21
2017-06-19T11:51:40.812Z,22.23
2017-06-19T11:54:08.352Z,22.74
2017-06-19T11:56:35.906Z,23.24
2017-06-19T11:59:03.495Z,23.59
2017-06-19T12:01:31.056Z,23.82
2017-06-19T12:03:58.570Z,23.83
2017-06-19T12:06:26.087Z,24.02
2017-06-19T12:08:53.682Z,24.08
2017-06-19T12:11:21.188Z,23.83
2017-06-19T12:13:48.739Z,24.07
2017-06-19T12:16:16.324Z,23.87
2017-06-19T12:18:43.878Z,23.93
2017-06-19T12:21:11.385Z,24.21
2017-06-19T12:23:39.735Z,24.26
2017-06-19T12:26:07.260Z,24.19
2017-06-19T12:28:34.811Z,24.22
2017-06-19T12:31:02.352Z,24.17
2017-06-19T12:33:29.878Z,24.58
2017-06-19T12:35:57.773Z,24.72
2017-06-19T12:38:25.319Z,24.93
2017-06-19T12:40:52.850Z,24.93
2017-06-19T12:43:20.360Z,25.01
2017-06-19T12:45:47.896Z,25.11
2017-06-19T12:48:15.458Z,25.04
2017-06-19T12:50:43.011Z,25.04
2017-06-19T12:53:10.626Z,25.13
2017-06-19T12:55:38.203Z,25.19
2017-06-19T12:58:05.708Z,25.12
2017-06-19T13:00:33.510Z,25.26
2017-06-19T13:03:01.013Z,25.20
2017-06-19T13:05:28.509Z,25.30
2017-06-19T13:07:56.076Z,25.50
2017-06-19T13:10:23.606Z,25.52
2017-06-19T13:12:51.106Z,25.41
2017-06-19T13:15:18.665Z,25.38
2017-06-19T13:17:46.179Z,25.36
2017-06-19T13:20:13.709Z,25.33
2017-06-19T13:22:41.399Z,25.22
2017-06-19T13:25:08.992Z,25.25
2017-06-19T13:27:36.506Z,25.01
2017-06-19T13:30:11.191Z,24.97
2017-06-19T13:32:38.704Z,24.81
2017-06-19T13:35:06.205Z,24.69
2017-06-19T13:37:33.768Z,24.68
2017-06-19T13:40:01.296Z,24.70
2017-06-19T13:42:28.863Z,24.86
2017-06-19T13:44:56.412Z,24.83
2017-06-19T13:47:23.915Z,24.82
2017-06-19T13:49:51.432Z,24.90
2017-06-19T13:52:18.988Z,24.77
2017-06-19T13:54:46.499Z,24.49
2017-06-19T13:57:14.309Z,24.61
2017-06-19T13:59:41.883Z,24.61
2017-06-19T14:02:09.725Z,24.58
2017-06-19T14:04:37.225Z,24.69
2017-06-19T14:07:04.741Z,24.80
2017-06-19T14:09:32.354Z,24.94
2017-06-19T14:11:59.861Z,25.07
2017-06-19T14:14:27.363Z,25.03
2017-06-19T14:16:55.292Z,25.23
2017-06-19T14:19:22.974Z,25.12
2017-06-19T14:21:50.467Z,25.26
2017-06-19T14:24:18.147Z,25.16
2017-06-19T14:26:45.756Z,25.22
2017-06-19T14:29:13.660Z,25.25
2017-06-19T14:31:41.249Z,25.20
2017-06-19T14:34:08.777Z,25.19
2017-06-19T14:36:36.563Z,25.05
2017-06-19T14:39:11.509Z,24.97
2017-06-19T14:41:39.052Z,24.88
2017-06-19T14:44:06.620Z,24.84
2017-06-19T14:46:34.197Z,24.68
2017-06-19T14:49:01.769Z,24.57
2017-06-19T14:51:29.344Z,24.73
2017-06-19T14:53:56.912Z,24.58
2017-06-19T14:56:24.421Z,24.54
2017-06-19T14:58:51.949Z,24.26
2017-06-19T15:01:19.579Z,23.93
2017-06-19T15:03:47.409Z,24.17
2017-06-19T15:06:14.937Z,24.52
2017-06-19T15:08:43.292Z,24.49
2017-06-19T15:11:10.864Z,24.37
2017-06-19T15:13:38.430Z,24.68
2017-06-19T15:16:06.005Z,24.78
2017-06-19T15:18:33.535Z,24.55
2017-06-19T15:21:16.783Z,24.70
2017-06-19T15:23:49.974Z,24.81
2017-06-19T15:26:17.550Z,24.84
2017-06-19T15:28:45.084Z,24.76
2017-06-19T15:31:12.656Z,24.94
2017-06-19T15:33:40.189Z,24.86
2017-06-19T15:36:07.710Z,24.89
2017-06-19T15:38:35.241Z,24.68
2017-06-19T15:41:03.554Z,24.69
2017-06-19T15:43:31.053Z,24.72
2017-06-19T15:45:58.606Z,24.78
2017-06-19T15:48:26.234Z,24.51
2017-06-19T15:50:53.758Z,24.40
2017-06-19T15:53:21.359Z,24.54
2017-06-19T15:55:48.896Z,24.61
2017-06-19T15:58:16.404Z,24.27
2017-06-19T16:00:43.990Z,23.53
2017-06-19T16:03:11.512Z,23.27
2017-06-19T16:05:39.024Z,23.39
2017-06-19T16:08:06.671Z,23.26
2017-06-19T16:10:34.178Z,23.37
2017-06-19T16:13:01.690Z,23.34
2017-06-19T16:15:30.135Z,23.72
2017-06-19T16:17:57.637Z,24.01
2017-06-19T16:20:25.149Z,24.28
2017-06-19T16:22:52.733Z,24.43
2017-06-19T16:25:21.152Z,24.44
2017-06-19T16:27:48.862Z,24.46
2017-06-19T16:30:16.780Z,24.36
2017-06-19T16:32:44.290Z,24.38
2017-06-19T16:35:11.789Z,24.19
2017-06-19T16:37:40.075Z,24.22
2017-06-19T16:40:08.080Z,24.29
2017-06-19T16:42:35.593Z,24.18
2017-06-19T16:45:03.141Z,24.18
2017-06-19T16:47:30.995Z,23.95
2017-06-19T16:49:58.568Z,23.98
2017-06-19T16:52:26.208Z,23.99
2017-06-19T16:54:54.327Z,24.00
2017-06-19T16:57:22.129Z,23.99
2017-06-19T16:59:49.836Z,23.90
2017-06-19T17:02:17.506Z,23.84
2017-06-19T17:04:45.066Z,23.85
2017-06-19T17:07:12.569Z,23.82
2017-06-19T17:09:40.128Z,23.83
2017-06-19T17:12:07.688Z,23.73
2017-06-19T17:14:35.216Z,23.67
2017-06-19T17:17:03.409Z,23.73
2017-06-19T17:19:30.969Z,23.67
2017-06-19T17:21:58.516Z,23.51
2017-06-19T17:24:26.306Z,23.45
2017-06-19T17:26:54.377Z,23.46
2017-06-19T17:29:22.695Z,23.40
2017-06-19T17:31:50.431Z,23.31
2017-06-19T17:34:17.993Z,23.26
2017-06-19T17:36:46.391Z,23.35
2017-06-19T17:39:13.945Z,23.14
2017-06-19T17:41:41.898Z,22.93
2017-06-19T17:44:09.657Z,23.08
2017-06-19T17:46:37.702Z,22.99
2017-06-19T17:49:06.931Z,22.98
2017-06-19T17:51:35.042Z,23.07
2017-06-19T17:54:02.629Z,22.77
2017-06-19T17:56:30.588Z,22.65
2017-06-19T17:58:58.722Z,22.64
2017-06-19T18:01:26.660Z,22.83
2017-06-19T18:03:54.360Z,22.77
2017-06-19T18:06:21.957Z,22.81
2017-06-19T18:08:49.579Z,22.82
2017-06-19T18:11:17.120Z,22.61
2017-06-19T18:13:45.093Z,22.70
2017-06-19T18:16:12.772Z,22.69
2017-06-19T18:18:40.937Z,22.63
2017-06-19T18:21:09.122Z,22.64
2017-06-19T18:23:36.722Z,22.54
2017-06-19T18:26:04.906Z,22.56
2017-06-19T18:28:32.441Z,22.56
2017-06-19T18:30:59.998Z,22.47
2017-06-19T18:33:27.541Z,22.44
2017-06-19T18:35:55.067Z,22.35
2017-06-19T18:38:22.675Z,22.30
2017-06-19T18:40:50.215Z,22.40
2017-06-19T18:43:17.742Z,22.40
2017-06-19T18:45:45.329Z,22.18
2017-06-19T18:48:12.885Z,22.24
2017-06-19T18:50:40.684Z,22.23
2017-06-19T18:53:08.324Z,22.11
2017-06-19T18:55:35.877Z,22.04
2017-06-19T18:58:03.404Z,21.97
2017-06-19T19:00:31.145Z,22.01
2017-06-19T19:02:58.667Z,22.03
2017-06-19T19:05:26.445Z,22.09
2017-06-19T19:07:54.068Z,22.02
2017-06-19T19:10:21.602Z,21.93
2017-06-19T19:12:49.178Z,21.82
2017-06-19T19:15:16.749Z,21.82
2017-06-19T19:17:44.286Z,21.76
2017-06-19T19:20:12.131Z,21.70
2017-06-19T19:22:39.697Z,21.65
2017-06-19T19:25:07.220Z,21.72
2017-06-19T19:27:34.953Z,21.61
2017-06-19T19:30:06.240Z,21.07
2017-06-19T19:32:33.795Z,21.08
2017-06-19T19:35:01.310Z,21.37
2017-06-19T19:37:28.865Z,21.54
2017-06-19T19:39:56.390Z,21.59
2017-06-19T19:42:24.145Z,21.52
2017-06-19T19:44:51.773Z,21.39
2017-06-19T19:47:19.338Z,21.40
2017-06-19T19:49:46.907Z,21.38
2017-06-19T19:52:15.326Z,21.29
2017-06-19T19:54:42.860Z,21.30
2017-06-19T19:57:10.715Z,21.19
2017-06-19T19:59:38.292Z,21.13
2017-06-19T20:02:06.709Z,21.12
2017-06-19T20:04:34.217Z,21.10
2017-06-19T20:07:01.809Z,21.04
2017-06-19T20:09:29.368Z,20.87
2017-06-19T20:11:56.901Z,20.88
2017-06-19T20:14:24.694Z,20.98
2017-06-19T20:16:52.229Z,20.89
2017-06-19T20:19:19.737Z,20.73
2017-06-19T20:21:47.306Z,20.48
2017-06-19T20:24:15.171Z,20.38
2017-06-19T20:26:42.706Z,20.05
2017-06-19T20:29:10.354Z,19.97
2017-06-19T20:31:37.916Z,19.73
2017-06-19T20:34:05.433Z,19.34
2017-06-19T20:36:33.054Z,19.41
2017-06-19T20:39:00.744Z,20.04
2017-06-19T20:41:28.268Z,20.26
2017-06-19T20:43:55.806Z,20.28
2017-06-19T20:46:23.427Z,20.32
2017-06-19T20:48:50.957Z,20.26
2017-06-19T20:51:18.460Z,20.19
2017-06-19T20:53:46.015Z,20.26
2017-06-19T20:56:13.814Z,19.89
2017-06-19T20:58:41.391Z,19.99
2017-06-19T21:01:08.987Z,20.03
2017-06-19T21:03:36.747Z,19.97
2017-06-19T21:06:04.608Z,19.75
2017-06-19T21:08:32.201Z,19.75
2017-06-19T21:10:59.713Z,19.89
2017-06-19T21:13:27.240Z,19.81
2017-06-19T21:15:54.813Z,19.95
2017-06-19T21:18:22.578Z,20.03
2017-06-19T21:20:50.092Z,20.06
2017-06-19T21:23:17.666Z,19.99
2017-06-19T21:25:45.185Z,20.10
2017-06-19T21:28:12.961Z,19.74
2017-06-19T21:30:40.522Z,19.91
2017-06-19T21:33:08.034Z,19.88
2017-06-19T21:35:35.558Z,19.98
2017-06-19T21:38:03.180Z,19.94
2017-06-19T21:40:30.724Z,19.91
2017-06-19T21:42:58.512Z,19.84
2017-06-19T21:45:26.078Z,19.81
2017-06-19T21:47:53.589Z,19.71
2017-06-19T21:50:21.133Z,19.85
2017-06-19T21:52:48.673Z,19.90
2017-06-19T21:55:16.199Z,19.42
2017-06-19T21:57:43.789Z,19.87
2017-06-19T22:00:11.410Z,19.76
2017-06-19T22:02:38.938Z,19.65
2017-06-19T22:05:06.499Z,19.51
2017-06-19T22:07:34.143Z,19.63
2017-06-19T22:10:01.711Z,19.70
2017-06-19T22:12:29.219Z,19.69
2017-06-19T22:14:56.809Z,19.63
2017-06-19T22:17:24.432Z,19.48
2017-06-19T22:19:52.018Z,19.17
2017-06-19T22:22:35.411Z,19.21
2017-06-19T22:25:02.995Z,19.39
2017-06-19T22:27:30.530Z,19.25
2017-06-19T22:29:58.158Z,19.27
2017-06-19T22:32:25.727Z,19.42
2017-06-19T22:34:53.241Z,19.52
2017-06-19T22:37:21.013Z,19.41
2017-06-19T22:39:48.585Z,19.44
2017-06-19T22:42:16.113Z,19.31
2017-06-19T22:44:43.691Z,19.08
2017-06-19T22:47:11.253Z,19.05
2017-06-19T22:49:38.793Z,18.73
2017-06-19T22:52:06.335Z,19.04
2017-06-19T22:54:33.880Z,18.80
2017-06-19T22:57:01.693Z,18.91
2017-06-19T22:59:29.456Z,19.05
2017-06-19T23:01:57.017Z,19.09
2017-06-19T23:04:24.556Z,18.96
2017-06-19T23:06:52.743Z,18.91
2017-06-19T23:09:20.372Z,18.91
2017-06-19T23:11:48.926Z,18.77
2017-06-19T23:14:16.446Z,18.91
2017-06-19T23:16:44.016Z,18.87
2017-06-19T23:19:11.518Z,18.93
2017-06-19T23:21:39.046Z,19.00
2017-06-19T23:24:06.611Z,18.51
2017-06-19T23:26:34.405Z,18.62
2017-06-19T23:29:01.958Z,18.69
2017-06-19T23:31:29.676Z,18.26
2017-06-19T23:33:57.212Z,18.06
2017-06-19T23:36:25.082Z,17.80
2017-06-19T23:38:52.713Z,17.74
2017-06-19T23:41:20.303Z,17.94
2017-06-19T23:43:47.833Z,18.37
2017-06-19T23:46:15.391Z,18.33
2017-06-19T23:48:42.942Z,18.27
2017-06-19T23:51:10.721Z,18.33
2017-06-19T23:53:38.388Z,18.30
2017-06-19T23:56:05.904Z,18.57
2017-06-19T23:58:33.544Z,18.33
